sensor_id;sensor_type;location;lat;lon;timestamp;pressure;altitude;pressure_sealevel;temperature;humidity
43480;BME280;29067;35.492;-97.520;2023-11-21T00:00:19;97080.10;;;5.11;69.22
43480;BME280;29067;35.492;-97.520;2023-11-21T00:02:47;97082.93;;;5.06;69.24
43480;BME280;29067;35.492;-97.520;2023-11-21T00:05:16;97093.45;;;4.43;69.97
43480;BME280;29067;35.492;-97.520;2023-11-21T00:07:44;97090.52;;;6.09;67.26
43480;BME280;29067;35.492;-97.520;2023-11-21T00:10:12;97098.32;;;5.35;69.02
43480;BME280;29067;35.492;-97.520;2023-11-21T00:12:40;97109.45;;;4.80;70.98
43480;BME280;29067;35.492;-97.520;2023-11-21T00:15:09;97111.19;;;4.45;72.53
43480;BME280;29067;35.492;-97.520;2023-11-21T00:17:38;97121.37;;;4.73;72.02
43480;BME280;29067;35.492;-97.520;2023-11-21T00:20:07;97121.88;;;5.49;69.06
43480;BME280;29067;35.492;-97.520;2023-11-21T00:22:35;97128.74;;;4.70;69.79
43480;BME280;29067;35.492;-97.520;2023-11-21T00:25:04;97130.90;;;4.18;69.37
43480;BME280;29067;35.492;-97.520;2023-11-21T00:27:32;97139.93;;;5.47;69.94
43480;BME280;29067;35.492;-97.520;2023-11-21T00:30:00;97140.07;;;5.47;68.35
43480;BME280;29067;35.492;-97.520;2023-11-21T00:32:28;97142.38;;;5.56;66.90
43480;BME280;29067;35.492;-97.520;2023-11-21T00:34:56;97148.14;;;5.08;69.32
43480;BME280;29067;35.492;-97.520;2023-11-21T00:37:24;97159.98;;;3.88;71.34
43480;BME280;29067;35.492;-97.520;2023-11-21T00:39:52;97168.26;;;5.49;71.20
43480;BME280;29067;35.492;-97.520;2023-11-21T00:42:20;97166.95;;;4.75;71.14
43480;BME280;29067;35.492;-97.520;2023-11-21T00:44:47;97171.49;;;5.25;71.09
43480;BME280;29067;35.492;-97.520;2023-11-21T00:47:15;97174.66;;;5.67;70.09
43480;BME280;29067;35.492;-97.520;2023-11-21T00:49:43;97184.73;;;3.76;75.09
43480;BME280;29067;35.492;-97.520;2023-11-21T00:52:11;97187.95;;;4.05;74.68
43480;BME280;29067;35.492;-97.520;2023-11-21T00:54:39;97191.63;;;4.15;73.25
43480;BME280;29067;35.492;-97.520;2023-11-21T00:57:07;97201.23;;;4.75;73.91
43480;BME280;29067;35.492;-97.520;2023-11-21T00:59:34;97205.41;;;5.41;71.62
43480;BME280;29067;35.492;-97.520;2023-11-21T01:02:02;97218.98;;;3.63;75.00
43480;BME280;29067;35.492;-97.520;2023-11-21T01:04:30;97220.23;;;3.97;77.29
43480;BME280;29067;35.492;-97.520;2023-11-21T01:06:58;97219.15;;;4.87;75.68
43480;BME280;29067;35.492;-97.520;2023-11-21T01:09:26;97224.06;;;4.84;74.54
43480;BME280;29067;35.492;-97.520;2023-11-21T01:11:54;97233.38;;;3.66;76.64
43480;BME280;29067;35.492;-97.520;2023-11-21T01:14:22;97235.48;;;3.74;75.75
43480;BME280;29067;35.492;-97.520;2023-11-21T01:16:49;97235.34;;;4.07;73.00
43480;BME280;29067;35.492;-97.520;2023-11-21T01:19:17;97254.10;;;3.70;73.21
43480;BME280;29067;35.492;-97.520;2023-11-21T01:21:45;97252.60;;;4.65;72.77
43480;BME280;29067;35.492;-97.520;2023-11-21T01:24:13;97266.08;;;4.81;72.20
43480;BME280;29067;35.492;-97.520;2023-11-21T01:26:41;97263.03;;;4.54;73.29
43480;BME280;29067;35.492;-97.520;2023-11-21T01:29:09;97263.03;;;4.64;71.83
43480;BME280;29067;35.492;-97.520;2023-11-21T01:31:37;97272.61;;;5.65;70.92
43480;BME280;29067;35.492;-97.520;2023-11-21T01:34:05;97278.62;;;4.51;72.07
43480;BME280;29067;35.492;-97.520;2023-11-21T01:36:33;97272.07;;;4.90;71.53
43480;BME280;29067;35.492;-97.520;2023-11-21T01:39:03;97282.84;;;5.16;71.46
43480;BME280;29067;35.492;-97.520;2023-11-21T01:41:33;97287.09;;;4.13;71.55
43480;BME280;29067;35.492;-97.520;2023-11-21T01:44:01;97291.39;;;4.31;71.93
43480;BME280;29067;35.492;-97.520;2023-11-21T01:46:29;97290.61;;;4.01;73.11
43480;BME280;29067;35.492;-97.520;2023-11-21T01:48:59;97301.10;;;3.64;74.46
43480;BME280;29067;35.492;-97.520;2023-11-21T01:51:30;97298.70;;;4.02;73.48
43480;BME280;29067;35.492;-97.520;2023-11-21T01:54:00;97300.68;;;4.36;72.77
43480;BME280;29067;35.492;-97.520;2023-11-21T01:56:32;97310.12;;;4.20;71.76
43480;BME280;29067;35.492;-97.520;2023-11-21T01:59:04;97317.12;;;3.51;73.44
43480;BME280;29067;35.492;-97.520;2023-11-21T02:01:39;97318.11;;;3.45;75.30
43480;BME280;29067;35.492;-97.520;2023-11-21T02:04:10;97316.96;;;3.27;74.87
43480;BME280;29067;35.492;-97.520;2023-11-21T02:06:40;97327.41;;;3.77;73.79
43480;BME280;29067;35.492;-97.520;2023-11-21T02:09:09;97338.51;;;4.46;72.49
43480;BME280;29067;35.492;-97.520;2023-11-21T02:11:37;97341.87;;;3.97;71.42
43480;BME280;29067;35.492;-97.520;2023-11-21T02:14:08;97350.23;;;2.89;74.75
43480;BME280;29067;35.492;-97.520;2023-11-21T02:16:37;97352.90;;;2.77;74.81
43480;BME280;29067;35.492;-97.520;2023-11-21T02:19:08;97371.86;;;3.57;72.89
43480;BME280;29067;35.492;-97.520;2023-11-21T02:21:39;97365.36;;;3.71;69.78
43480;BME280;29067;35.492;-97.520;2023-11-21T02:24:09;97373.50;;;3.85;70.31
43480;BME280;29067;35.492;-97.520;2023-11-21T02:26:38;97372.70;;;3.20;71.39
43480;BME280;29067;35.492;-97.520;2023-11-21T02:29:08;97379.24;;;3.65;70.79
43480;BME280;29067;35.492;-97.520;2023-11-21T02:31:37;97380.92;;;4.02;70.41
43480;BME280;29067;35.492;-97.520;2023-11-21T02:34:06;97381.82;;;4.81;68.81
43480;BME280;29067;35.492;-97.520;2023-11-21T02:36:36;97383.10;;;4.53;67.97
43480;BME280;29067;35.492;-97.520;2023-11-21T02:39:04;97380.86;;;5.17;66.54
43480;BME280;29067;35.492;-97.520;2023-11-21T02:41:33;97382.99;;;3.63;69.96
43480;BME280;29067;35.492;-97.520;2023-11-21T02:44:03;97387.13;;;4.63;69.01
43480;BME280;29067;35.492;-97.520;2023-11-21T02:46:32;97388.54;;;4.94;67.69
43480;BME280;29067;35.492;-97.520;2023-11-21T02:49:03;97388.73;;;3.20;69.76
43480;BME280;29067;35.492;-97.520;2023-11-21T02:51:32;97392.90;;;3.07;69.63
43480;BME280;29067;35.492;-97.520;2023-11-21T02:54:02;97404.04;;;3.04;71.14
43480;BME280;29067;35.492;-97.520;2023-11-21T02:56:32;97405.44;;;2.77;72.59
43480;BME280;29067;35.492;-97.520;2023-11-21T02:59:02;97409.87;;;3.03;70.77
43480;BME280;29067;35.492;-97.520;2023-11-21T03:01:32;97418.93;;;4.62;68.55
43480;BME280;29067;35.492;-97.520;2023-11-21T03:04:00;97423.94;;;2.38;72.88
43480;BME280;29067;35.492;-97.520;2023-11-21T03:06:32;97438.10;;;2.50;72.75
43480;BME280;29067;35.492;-97.520;2023-11-21T03:09:01;97431.43;;;3.63;69.63
43480;BME280;29067;35.492;-97.520;2023-11-21T03:11:30;97433.17;;;3.74;70.08
43480;BME280;29067;35.492;-97.520;2023-11-21T03:13:59;97442.85;;;3.04;70.36
43480;BME280;29067;35.492;-97.520;2023-11-21T03:16:28;97442.05;;;3.62;69.25
43480;BME280;29067;35.492;-97.520;2023-11-21T03:18:58;97450.65;;;4.74;66.60
43480;BME280;29067;35.492;-97.520;2023-11-21T03:21:27;97464.87;;;2.84;70.84
43480;BME280;29067;35.492;-97.520;2023-11-21T03:23:56;97457.22;;;3.27;70.87
43480;BME280;29067;35.492;-97.520;2023-11-21T03:26:24;97454.68;;;3.05;71.34
43480;BME280;29067;35.492;-97.520;2023-11-21T03:28:53;97459.24;;;3.98;68.53
43480;BME280;29067;35.492;-97.520;2023-11-21T03:31:22;97457.69;;;4.16;68.74
43480;BME280;29067;35.492;-97.520;2023-11-21T03:33:50;97466.37;;;3.01;70.55
43480;BME280;29067;35.492;-97.520;2023-11-21T03:36:18;97464.82;;;3.28;71.07
43480;BME280;29067;35.492;-97.520;2023-11-21T03:38:47;97474.67;;;3.14;71.40
43480;BME280;29067;35.492;-97.520;2023-11-21T03:41:15;97471.87;;;3.52;71.56
43480;BME280;29067;35.492;-97.520;2023-11-21T03:43:43;97484.10;;;3.56;71.62
43480;BME280;29067;35.492;-97.520;2023-11-21T03:46:11;97484.24;;;3.23;72.68
43480;BME280;29067;35.492;-97.520;2023-11-21T03:48:39;97494.05;;;2.15;75.71
43480;BME280;29067;35.492;-97.520;2023-11-21T03:51:07;97482.24;;;3.31;71.20
43480;BME280;29067;35.492;-97.520;2023-11-21T03:53:35;97490.83;;;4.34;68.05
43480;BME280;29067;35.492;-97.520;2023-11-21T03:56:03;97501.52;;;2.77;70.52
43480;BME280;29067;35.492;-97.520;2023-11-21T03:58:31;97498.56;;;2.19;72.90
43480;BME280;29067;35.492;-97.520;2023-11-21T04:01:00;97502.59;;;3.91;70.37
43480;BME280;29067;35.492;-97.520;2023-11-21T04:03:28;97503.25;;;3.51;70.69
43480;BME280;29067;35.492;-97.520;2023-11-21T04:05:56;97512.82;;;3.55;68.34
43480;BME280;29067;35.492;-97.520;2023-11-21T04:08:24;97515.49;;;3.01;69.78
43480;BME280;29067;35.492;-97.520;2023-11-21T04:10:52;97517.74;;;2.46;69.91
43480;BME280;29067;35.492;-97.520;2023-11-21T04:13:20;97518.40;;;3.28;67.39
43480;BME280;29067;35.492;-97.520;2023-11-21T04:15:48;97522.94;;;3.53;67.80
43480;BME280;29067;35.492;-97.520;2023-11-21T04:18:16;97530.82;;;4.56;66.47
43480;BME280;29067;35.492;-97.520;2023-11-21T04:20:44;97529.42;;;2.79;69.07
43480;BME280;29067;35.492;-97.520;2023-11-21T04:23:12;97533.99;;;2.73;70.51
43480;BME280;29067;35.492;-97.520;2023-11-21T04:25:40;97543.18;;;2.40;69.89
43480;BME280;29067;35.492;-97.520;2023-11-21T04:28:08;97549.17;;;1.52;72.01
43480;BME280;29067;35.492;-97.520;2023-11-21T04:30:36;97543.18;;;2.89;68.95
43480;BME280;29067;35.492;-97.520;2023-11-21T04:33:04;97541.67;;;2.84;69.40
43480;BME280;29067;35.492;-97.520;2023-11-21T04:35:32;97541.74;;;2.88;68.80
43480;BME280;29067;35.492;-97.520;2023-11-21T04:38:00;97546.75;;;2.77;71.62
43480;BME280;29067;35.492;-97.520;2023-11-21T04:40:28;97540.68;;;3.55;68.92
43480;BME280;29067;35.492;-97.520;2023-11-21T04:42:55;97547.71;;;2.08;70.90
43480;BME280;29067;35.492;-97.520;2023-11-21T04:45:23;97551.85;;;3.21;69.95
43480;BME280;29067;35.492;-97.520;2023-11-21T04:47:51;97551.82;;;2.97;69.00
43480;BME280;29067;35.492;-97.520;2023-11-21T04:50:19;97560.49;;;2.08;70.24
43480;BME280;29067;35.492;-97.520;2023-11-21T04:52:47;97551.75;;;3.96;67.56
43480;BME280;29067;35.492;-97.520;2023-11-21T04:55:15;97560.55;;;2.85;68.07
43480;BME280;29067;35.492;-97.520;2023-11-21T04:57:43;97560.10;;;3.81;67.50
43480;BME280;29067;35.492;-97.520;2023-11-21T05:00:12;97558.32;;;3.35;67.17
43480;BME280;29067;35.492;-97.520;2023-11-21T05:02:40;97566.94;;;3.16;66.31
43480;BME280;29067;35.492;-97.520;2023-11-21T05:05:09;97566.95;;;3.44;66.63
43480;BME280;29067;35.492;-97.520;2023-11-21T05:07:37;97568.98;;;2.78;67.54
43480;BME280;29067;35.492;-97.520;2023-11-21T05:10:07;97573.02;;;3.09;66.74
43480;BME280;29067;35.492;-97.520;2023-11-21T05:12:35;97570.58;;;3.07;65.46
43480;BME280;29067;35.492;-97.520;2023-11-21T05:15:05;97585.71;;;2.89;65.67
43480;BME280;29067;35.492;-97.520;2023-11-21T05:17:33;97583.85;;;3.29;66.33
43480;BME280;29067;35.492;-97.520;2023-11-21T05:20:01;97581.07;;;3.73;65.03
43480;BME280;29067;35.492;-97.520;2023-11-21T05:22:29;97577.95;;;3.82;64.14
43480;BME280;29067;35.492;-97.520;2023-11-21T05:24:57;97591.16;;;2.57;66.62
43480;BME280;29067;35.492;-97.520;2023-11-21T05:27:25;97597.78;;;3.05;65.90
43480;BME280;29067;35.492;-97.520;2023-11-21T05:29:53;97597.76;;;2.69;67.63
43480;BME280;29067;35.492;-97.520;2023-11-21T05:32:21;97595.67;;;4.00;64.29
43480;BME280;29067;35.492;-97.520;2023-11-21T05:34:48;97603.58;;;3.18;65.38
43480;BME280;29067;35.492;-97.520;2023-11-21T05:37:16;97608.11;;;2.01;68.21
43480;BME280;29067;35.492;-97.520;2023-11-21T05:39:44;97611.17;;;2.14;68.56
43480;BME280;29067;35.492;-97.520;2023-11-21T05:42:12;97616.86;;;2.01;70.23
43480;BME280;29067;35.492;-97.520;2023-11-21T05:44:42;97614.35;;;1.49;71.54
43480;BME280;29067;35.492;-97.520;2023-11-21T05:47:11;97633.30;;;1.67;71.05
43480;BME280;29067;35.492;-97.520;2023-11-21T05:49:39;97626.81;;;2.35;70.01
43480;BME280;29067;35.492;-97.520;2023-11-21T05:52:07;97632.10;;;2.35;69.11
43480;BME280;29067;35.492;-97.520;2023-11-21T05:54:35;97636.04;;;1.84;69.98
43480;BME280;29067;35.492;-97.520;2023-11-21T05:57:03;97648.38;;;2.43;68.48
43480;BME280;29067;35.492;-97.520;2023-11-21T05:59:32;97644.01;;;2.43;68.47
43480;BME280;29067;35.492;-97.520;2023-11-21T06:02:00;97645.17;;;2.10;67.57
43480;BME280;29067;35.492;-97.520;2023-11-21T06:04:28;97653.08;;;2.80;67.75
43480;BME280;29067;35.492;-97.520;2023-11-21T06:06:56;97662.71;;;1.79;70.01
43480;BME280;29067;35.492;-97.520;2023-11-21T06:09:23;97674.15;;;1.94;68.53
43480;BME280;29067;35.492;-97.520;2023-11-21T06:11:51;97671.84;;;1.60;68.10
43480;BME280;29067;35.492;-97.520;2023-11-21T06:14:19;97669.08;;;1.38;70.55
43480;BME280;29067;35.492;-97.520;2023-11-21T06:16:47;97682.23;;;1.74;69.72
43480;BME280;29067;35.492;-97.520;2023-11-21T06:19:15;97667.86;;;2.30;68.01
43480;BME280;29067;35.492;-97.520;2023-11-21T06:21:46;97671.27;;;2.08;68.80
43480;BME280;29067;35.492;-97.520;2023-11-21T06:24:14;97672.01;;;2.31;67.88
43480;BME280;29067;35.492;-97.520;2023-11-21T06:26:42;97675.93;;;1.53;68.50
43480;BME280;29067;35.492;-97.520;2023-11-21T06:29:10;97672.67;;;1.00;70.07
43480;BME280;29067;35.492;-97.520;2023-11-21T06:31:37;97674.34;;;1.58;69.49
43480;BME280;29067;35.492;-97.520;2023-11-21T06:34:05;97674.75;;;2.39;68.31
43480;BME280;29067;35.492;-97.520;2023-11-21T06:36:33;97668.45;;;2.84;67.40
43480;BME280;29067;35.492;-97.520;2023-11-21T06:39:01;97667.38;;;2.92;66.52
43480;BME280;29067;35.492;-97.520;2023-11-21T06:41:29;97672.61;;;2.20;67.78
43480;BME280;29067;35.492;-97.520;2023-11-21T06:43:57;97667.97;;;2.70;67.12
43480;BME280;29067;35.492;-97.520;2023-11-21T06:46:25;97669.27;;;2.88;65.82
43480;BME280;29067;35.492;-97.520;2023-11-21T06:48:53;97681.59;;;2.16;67.40
43480;BME280;29067;35.492;-97.520;2023-11-21T06:51:21;97678.82;;;2.55;66.56
43480;BME280;29067;35.492;-97.520;2023-11-21T06:53:49;97681.44;;;1.21;68.49
43480;BME280;29067;35.492;-97.520;2023-11-21T06:56:18;97678.22;;;2.32;67.29
43480;BME280;29067;35.492;-97.520;2023-11-21T06:58:46;97690.14;;;1.40;69.74
43480;BME280;29067;35.492;-97.520;2023-11-21T07:01:14;97695.69;;;2.88;68.20
43480;BME280;29067;35.492;-97.520;2023-11-21T07:03:42;97696.32;;;1.99;68.06
43480;BME280;29067;35.492;-97.520;2023-11-21T07:06:10;97696.96;;;2.08;68.86
43480;BME280;29067;35.492;-97.520;2023-11-21T07:08:38;97704.32;;;1.33;69.39
43480;BME280;29067;35.492;-97.520;2023-11-21T07:11:06;97696.91;;;2.54;68.51
43480;BME280;29067;35.492;-97.520;2023-11-21T07:13:34;97714.74;;;1.74;69.71
43480;BME280;29067;35.492;-97.520;2023-11-21T07:16:02;97707.47;;;2.36;68.12
43480;BME280;29067;35.492;-97.520;2023-11-21T07:18:30;97710.39;;;2.05;69.44
43480;BME280;29067;35.492;-97.520;2023-11-21T07:20:58;97710.07;;;2.11;69.32
43480;BME280;29067;35.492;-97.520;2023-11-21T07:23:26;97709.55;;;3.10;66.25
43480;BME280;29067;35.492;-97.520;2023-11-21T07:25:54;97713.52;;;2.85;67.15
43480;BME280;29067;35.492;-97.520;2023-11-21T07:28:21;97712.29;;;1.90;68.23
43480;BME280;29067;35.492;-97.520;2023-11-21T07:30:49;97711.40;;;3.36;66.03
43480;BME280;29067;35.492;-97.520;2023-11-21T07:33:17;97715.50;;;3.11;65.59
43480;BME280;29067;35.492;-97.520;2023-11-21T07:35:45;97718.33;;;3.13;66.11
43480;BME280;29067;35.492;-97.520;2023-11-21T07:38:13;97719.54;;;2.42;67.78
43480;BME280;29067;35.492;-97.520;2023-11-21T07:40:41;97716.68;;;2.93;67.03
43480;BME280;29067;35.492;-97.520;2023-11-21T07:43:09;97722.72;;;2.32;67.20
43480;BME280;29067;35.492;-97.520;2023-11-21T07:45:37;97726.16;;;3.91;65.10
43480;BME280;29067;35.492;-97.520;2023-11-21T07:48:05;97730.20;;;2.96;66.54
43480;BME280;29067;35.492;-97.520;2023-11-21T07:50:33;97734.02;;;2.76;67.28
43480;BME280;29067;35.492;-97.520;2023-11-21T07:53:00;97730.68;;;3.91;65.59
43480;BME280;29067;35.492;-97.520;2023-11-21T07:55:28;97739.05;;;2.04;68.38
43480;BME280;29067;35.492;-97.520;2023-11-21T07:57:56;97744.59;;;1.87;69.76
43480;BME280;29067;35.492;-97.520;2023-11-21T08:00:24;97741.18;;;2.74;67.33
43480;BME280;29067;35.492;-97.520;2023-11-21T08:02:52;97741.34;;;2.27;67.14
43480;BME280;29067;35.492;-97.520;2023-11-21T08:05:21;97749.70;;;2.76;66.93
43480;BME280;29067;35.492;-97.520;2023-11-21T08:07:49;97746.61;;;2.47;68.10
43480;BME280;29067;35.492;-97.520;2023-11-21T08:10:17;97755.86;;;2.04;69.64
43480;BME280;29067;35.492;-97.520;2023-11-21T08:12:44;97753.99;;;2.71;69.15
43480;BME280;29067;35.492;-97.520;2023-11-21T08:15:12;97762.14;;;3.22;67.07
43480;BME280;29067;35.492;-97.520;2023-11-21T08:17:40;97766.42;;;3.09;67.19
43480;BME280;29067;35.492;-97.520;2023-11-21T08:20:09;97770.30;;;1.14;70.15
43480;BME280;29067;35.492;-97.520;2023-11-21T08:22:38;97770.44;;;2.12;68.58
43480;BME280;29067;35.492;-97.520;2023-11-21T08:25:06;97770.80;;;2.85;68.55
43480;BME280;29067;35.492;-97.520;2023-11-21T08:27:34;97773.24;;;2.80;67.52
43480;BME280;29067;35.492;-97.520;2023-11-21T08:30:03;97771.94;;;1.76;68.97
43480;BME280;29067;35.492;-97.520;2023-11-21T08:32:31;97785.33;;;2.49;69.73
43480;BME280;29067;35.492;-97.520;2023-11-21T08:34:58;97780.04;;;2.18;69.60
43480;BME280;29067;35.492;-97.520;2023-11-21T08:37:26;97785.95;;;2.07;69.06
43480;BME280;29067;35.492;-97.520;2023-11-21T08:39:54;97781.18;;;2.76;68.49
43480;BME280;29067;35.492;-97.520;2023-11-21T08:42:22;97783.89;;;2.85;68.53
43480;BME280;29067;35.492;-97.520;2023-11-21T08:44:50;97785.63;;;2.18;68.51
43480;BME280;29067;35.492;-97.520;2023-11-21T08:47:17;97786.83;;;3.35;67.55
43480;BME280;29067;35.492;-97.520;2023-11-21T08:49:45;97784.83;;;1.10;68.97
43480;BME280;29067;35.492;-97.520;2023-11-21T08:52:13;97797.36;;;3.05;68.34
43480;BME280;29067;35.492;-97.520;2023-11-21T08:54:41;97796.78;;;2.41;67.27
43480;BME280;29067;35.492;-97.520;2023-11-21T08:57:09;97794.67;;;3.15;67.19
43480;BME280;29067;35.492;-97.520;2023-11-21T08:59:37;97813.99;;;1.82;69.26
43480;BME280;29067;35.492;-97.520;2023-11-21T09:02:05;97807.88;;;2.21;69.21
43480;BME280;29067;35.492;-97.520;2023-11-21T09:04:33;97809.51;;;2.86;67.58
43480;BME280;29067;35.492;-97.520;2023-11-21T09:07:01;97812.20;;;2.16;68.50
43480;BME280;29067;35.492;-97.520;2023-11-21T09:09:28;97812.41;;;2.78;66.76
43480;BME280;29067;35.492;-97.520;2023-11-21T09:11:56;97817.58;;;2.71;67.21
43480;BME280;29067;35.492;-97.520;2023-11-21T09:14:24;97814.07;;;3.63;66.20
43480;BME280;29067;35.492;-97.520;2023-11-21T09:16:52;97819.70;;;2.53;68.83
43480;BME280;29067;35.492;-97.520;2023-11-21T09:19:20;97823.33;;;2.33;70.65
43480;BME280;29067;35.492;-97.520;2023-11-21T09:21:47;97823.22;;;2.59;68.60
43480;BME280;29067;35.492;-97.520;2023-11-21T09:24:15;97827.87;;;1.87;70.64
43480;BME280;29067;35.492;-97.520;2023-11-21T09:26:43;97834.16;;;2.70;68.61
43480;BME280;29067;35.492;-97.520;2023-11-21T09:29:11;97830.69;;;3.35;69.14
43480;BME280;29067;35.492;-97.520;2023-11-21T09:31:39;97830.57;;;2.82;68.53
43480;BME280;29067;35.492;-97.520;2023-11-21T09:34:07;97830.09;;;3.17;67.38
43480;BME280;29067;35.492;-97.520;2023-11-21T09:36:35;97833.66;;;3.44;66.80
43480;BME280;29067;35.492;-97.520;2023-11-21T09:39:03;97832.14;;;4.15;65.81
43480;BME280;29067;35.492;-97.520;2023-11-21T09:41:40;97835.26;;;2.91;67.84
43480;BME280;29067;35.492;-97.520;2023-11-21T09:44:14;97835.34;;;3.53;66.73
43480;BME280;29067;35.492;-97.520;2023-11-21T09:46:47;97843.30;;;2.47;67.81
43480;BME280;29067;35.492;-97.520;2023-11-21T09:49:18;97827.67;;;2.80;67.49
43480;BME280;29067;35.492;-97.520;2023-11-21T09:51:49;97836.34;;;2.66;68.20
43480;BME280;29067;35.492;-97.520;2023-11-21T09:54:17;97839.94;;;1.95;68.64
43480;BME280;29067;35.492;-97.520;2023-11-21T09:56:46;97833.76;;;3.03;68.54
43480;BME280;29067;35.492;-97.520;2023-11-21T09:59:15;97836.38;;;2.83;68.87
43480;BME280;29067;35.492;-97.520;2023-11-21T10:01:44;97830.85;;;3.91;66.75
43480;BME280;29067;35.492;-97.520;2023-11-21T10:04:13;97834.23;;;2.99;66.63
43480;BME280;29067;35.492;-97.520;2023-11-21T10:06:41;97833.16;;;3.52;67.00
43480;BME280;29067;35.492;-97.520;2023-11-21T10:09:10;97830.25;;;4.00;65.27
43480;BME280;29067;35.492;-97.520;2023-11-21T10:11:41;97834.23;;;2.92;67.67
43480;BME280;29067;35.492;-97.520;2023-11-21T10:14:10;97840.66;;;2.62;68.81
43480;BME280;29067;35.492;-97.520;2023-11-21T10:16:40;97836.94;;;3.20;67.94
43480;BME280;29067;35.492;-97.520;2023-11-21T10:19:10;97834.48;;;3.77;66.02
43480;BME280;29067;35.492;-97.520;2023-11-21T10:21:39;97843.16;;;2.46;69.12
43480;BME280;29067;35.492;-97.520;2023-11-21T10:24:07;97839.97;;;3.01;68.21
43480;BME280;29067;35.492;-97.520;2023-11-21T10:26:36;97838.83;;;2.96;67.99
43480;BME280;29067;35.492;-97.520;2023-11-21T10:29:04;97846.35;;;3.37;68.48
43480;BME280;29067;35.492;-97.520;2023-11-21T10:31:33;97840.88;;;2.65;70.68
43480;BME280;29067;35.492;-97.520;2023-11-21T10:34:18;97831.78;;;3.24;69.08
43480;BME280;29067;35.492;-97.520;2023-11-21T10:36:47;97832.63;;;2.87;67.91
43480;BME280;29067;35.492;-97.520;2023-11-21T10:39:17;97830.48;;;3.02;67.33
43480;BME280;29067;35.492;-97.520;2023-11-21T10:41:45;97833.31;;;2.62;67.87
43480;BME280;29067;35.492;-97.520;2023-11-21T10:44:15;97838.44;;;3.39;68.45
43480;BME280;29067;35.492;-97.520;2023-11-21T10:46:42;97843.62;;;3.69;68.32
43480;BME280;29067;35.492;-97.520;2023-11-21T10:49:11;97845.59;;;2.65;70.02
43480;BME280;29067;35.492;-97.520;2023-11-21T10:51:44;97855.22;;;3.66;67.83
43480;BME280;29067;35.492;-97.520;2023-11-21T10:54:12;97851.83;;;2.47;69.76
43480;BME280;29067;35.492;-97.520;2023-11-21T10:56:40;97853.26;;;3.22;68.87
43480;BME280;29067;35.492;-97.520;2023-11-21T10:59:10;97852.44;;;2.38;70.59
43480;BME280;29067;35.492;-97.520;2023-11-21T11:01:38;97849.14;;;3.96;67.58
43480;BME280;29067;35.492;-97.520;2023-11-21T11:04:08;97855.52;;;2.82;69.01
43480;BME280;29067;35.492;-97.520;2023-11-21T11:06:37;97855.07;;;3.48;68.48
43480;BME280;29067;35.492;-97.520;2023-11-21T11:09:05;97852.70;;;1.45;71.93
43480;BME280;29067;35.492;-97.520;2023-11-21T11:11:33;97861.81;;;2.18;72.13
43480;BME280;29067;35.492;-97.520;2023-11-21T11:14:01;97863.21;;;3.20;69.35
43480;BME280;29067;35.492;-97.520;2023-11-21T11:16:29;97870.15;;;2.78;69.85
43480;BME280;29067;35.492;-97.520;2023-11-21T11:18:58;97877.49;;;2.67;69.53
43480;BME280;29067;35.492;-97.520;2023-11-21T11:37:30;97894.19;;;3.98;70.52
43480;BME280;29067;35.492;-97.520;2023-11-21T11:39:57;97901.69;;;0.18;69.43
43480;BME280;29067;35.492;-97.520;2023-11-21T11:42:27;97908.43;;;2.94;68.29
43480;BME280;29067;35.492;-97.520;2023-11-21T11:44:55;97907.18;;;1.85;71.58
43480;BME280;29067;35.492;-97.520;2023-11-21T11:47:25;97915.36;;;3.13;69.93
43480;BME280;29067;35.492;-97.520;2023-11-21T11:50:04;97915.07;;;2.89;71.45
43480;BME280;29067;35.492;-97.520;2023-11-21T11:52:35;97920.10;;;2.30;70.73
43480;BME280;29067;35.492;-97.520;2023-11-21T11:55:04;97923.41;;;2.55;71.33
43480;BME280;29067;35.492;-97.520;2023-11-21T11:57:32;97922.46;;;3.10;70.49
43480;BME280;29067;35.492;-97.520;2023-11-21T12:03:01;97926.42;;;2.82;67.71
43480;BME280;29067;35.492;-97.520;2023-11-21T12:05:30;97926.10;;;2.51;69.12
43480;BME280;29067;35.492;-97.520;2023-11-21T12:08:00;97932.35;;;3.15;66.90
43480;BME280;29067;35.492;-97.520;2023-11-21T12:10:31;97930.92;;;3.53;67.05
43480;BME280;29067;35.492;-97.520;2023-11-21T12:13:00;97934.07;;;4.05;65.21
43480;BME280;29067;35.492;-97.520;2023-11-21T12:15:29;97944.49;;;3.64;66.69
43480;BME280;29067;35.492;-97.520;2023-11-21T12:17:57;97941.04;;;2.07;70.83
43480;BME280;29067;35.492;-97.520;2023-11-21T12:20:26;97944.55;;;2.90;69.83
43480;BME280;29067;35.492;-97.520;2023-11-21T12:22:55;97946.83;;;3.00;68.90
43480;BME280;29067;35.492;-97.520;2023-11-21T12:25:25;97950.02;;;3.92;66.51
43480;BME280;29067;35.492;-97.520;2023-11-21T12:27:54;97945.82;;;3.43;68.38
43480;BME280;29067;35.492;-97.520;2023-11-21T12:30:23;97950.94;;;3.52;67.94
43480;BME280;29067;35.492;-97.520;2023-11-21T12:32:53;97958.42;;;3.10;68.39
43480;BME280;29067;35.492;-97.520;2023-11-21T12:35:24;97964.11;;;3.53;67.50
43480;BME280;29067;35.492;-97.520;2023-11-21T12:37:52;97964.11;;;4.53;65.77
43480;BME280;29067;35.492;-97.520;2023-11-21T12:40:20;97966.88;;;2.67;68.20
43480;BME280;29067;35.492;-97.520;2023-11-21T12:42:50;97974.56;;;2.74;67.73
43480;BME280;29067;35.492;-97.520;2023-11-21T12:45:21;97984.07;;;4.55;64.67
43480;BME280;29067;35.492;-97.520;2023-11-21T12:47:50;97991.62;;;3.31;66.25
43480;BME280;29067;35.492;-97.520;2023-11-21T12:50:20;97994.48;;;2.89;68.38
43480;BME280;29067;35.492;-97.520;2023-11-21T12:52:49;97997.76;;;3.76;66.86
43480;BME280;29067;35.492;-97.520;2023-11-21T12:55:19;98002.68;;;1.91;71.54
43480;BME280;29067;35.492;-97.520;2023-11-21T12:57:48;98000.58;;;2.58;68.93
43480;BME280;29067;35.492;-97.520;2023-11-21T13:00:17;98002.80;;;3.37;68.30
43480;BME280;29067;35.492;-97.520;2023-11-21T13:02:45;98006.09;;;2.42;71.08
43480;BME280;29067;35.492;-97.520;2023-11-21T13:05:24;98009.03;;;2.74;70.80
43480;BME280;29067;35.492;-97.520;2023-11-21T13:07:52;98005.52;;;2.83;69.70
43480;BME280;29067;35.492;-97.520;2023-11-21T13:10:22;98012.15;;;2.63;69.92
43480;BME280;29067;35.492;-97.520;2023-11-21T13:12:51;98013.48;;;3.00;69.76
43480;BME280;29067;35.492;-97.520;2023-11-21T13:15:20;98021.88;;;1.58;71.39